Time;durP1;ratioP1;P1;durP2;ratioP2;P2;SDS_P1;SDS_P2;PMS_P1;PMS_P2;Temp;Humidity;BMP_temperature;BMP_pressure;BME280_temperature;BME280_humidity;BME280_pressure;Samples;Min_cycle;Max_cycle;Signal;HPM_P1;HPM_P2
2022/02/26 00:00:38;;;;;;;21.15;12.80;;;;;;;2.37;82.07;100957.45;1757892;81;20889;-72
2022/02/26 00:03:06;;;;;;;22.07;13.22;;;;;;;2.36;82.15;100959.64;1757912;81;20849;-71
2022/02/26 00:05:36;;;;;;;25.00;13.30;;;;;;;2.38;82.19;100956.58;1757953;81;21159;-73
2022/02/26 00:08:04;;;;;;;17.85;11.70;;;;;;;2.38;82.12;100959.59;1751542;81;20921;-71
2022/02/26 00:10:30;;;;;;;19.73;12.40;;;;;;;2.36;82.09;100955.77;1744638;82;20921;-71
2022/02/26 00:12:59;;;;;;;18.00;11.65;;;;;;;2.34;82.11;100952.80;1744470;82;20913;-72
2022/02/26 00:15:26;;;;;;;16.70;11.10;;;;;;;2.33;82.28;100952.37;1744752;80;21050;-73
2022/02/26 00:17:54;;;;;;;18.40;10.43;;;;;;;2.38;82.30;100958.30;1744662;81;20893;-73
2022/02/26 00:20:21;;;;;;;14.98;10.53;;;;;;;2.39;82.10;100956.98;1744752;80;20969;-72
2022/02/26 00:22:47;;;;;;;14.45;10.32;;;;;;;2.42;82.15;100957.35;1744896;81;21012;-72
2022/02/26 00:25:14;;;;;;;14.13;10.23;;;;;;;2.47;82.01;100958.13;1744509;82;20937;-72
2022/02/26 00:27:42;;;;;;;12.58;9.33;;;;;;;2.46;81.86;100960.30;1744623;82;21374;-73
2022/02/26 00:30:10;;;;;;;14.80;9.43;;;;;;;2.46;81.81;100959.00;1744660;82;21551;-72
2022/02/26 00:32:37;;;;;;;14.60;10.15;;;;;;;2.46;81.75;100963.72;1744439;82;21402;-72
2022/02/26 00:35:05;;;;;;;12.40;9.65;;;;;;;2.47;81.69;100959.42;1744601;82;20890;-72
2022/02/26 00:37:32;;;;;;;14.70;9.25;;;;;;;2.47;81.57;100963.31;1744672;81;21426;-72
2022/02/26 00:39:58;;;;;;;13.88;9.25;;;;;;;2.45;81.56;100960.73;1708730;84;20908;-72
2022/02/26 00:42:25;;;;;;;14.23;9.68;;;;;;;2.44;81.52;100965.94;1708832;84;21579;-73
2022/02/26 00:44:52;;;;;;;13.15;8.93;;;;;;;2.44;81.63;100965.48;1744532;82;20930;-73
2022/02/26 00:47:18;;;;;;;13.38;8.80;;;;;;;2.45;81.61;100960.73;1744427;82;21008;-72
2022/02/26 00:49:48;;;;;;;12.73;8.48;;;;;;;2.48;81.58;100964.55;1744587;81;21002;-72
2022/02/26 00:52:20;;;;;;;14.18;8.85;;;;;;;2.52;81.58;100963.20;1744628;82;20889;-72
2022/02/26 00:54:47;;;;;;;16.77;10.18;;;;;;;2.53;81.46;100971.37;1744830;82;21115;-71
2022/02/26 00:57:14;;;;;;;15.55;10.98;;;;;;;2.51;81.38;100961.03;1744912;80;20889;-73
2022/02/26 00:59:41;;;;;;;15.83;11.00;;;;;;;2.53;81.34;100961.02;1744727;82;20877;-72
2022/02/26 01:02:08;;;;;;;13.85;9.78;;;;;;;2.51;81.27;100958.45;1744564;81;20956;-73
2022/02/26 01:04:35;;;;;;;17.82;11.08;;;;;;;2.53;81.30;100958.42;1744627;82;21343;-72
2022/02/26 01:07:04;;;;;;;16.75;11.20;;;;;;;2.52;81.22;100957.58;1744524;81;21160;-71
2022/02/26 01:09:32;;;;;;;17.70;11.75;;;;;;;2.51;81.21;100955.02;1744398;80;20896;-72
2022/02/26 01:12:01;;;;;;;22.40;14.93;;;;;;;2.50;81.16;100958.05;1744579;82;20937;-71
2022/02/26 01:14:29;;;;;;;18.15;11.75;;;;;;;2.49;81.17;100961.54;1744419;82;20940;-73
2022/02/26 01:16:56;;;;;;;16.12;12.15;;;;;;;2.48;81.05;100954.64;1744547;81;20932;-71
2022/02/26 01:19:24;;;;;;;21.77;12.40;;;;;;;2.44;81.08;100961.61;1744509;81;21965;-72
2022/02/26 01:21:51;;;;;;;20.27;13.68;;;;;;;2.42;81.12;100965.12;1744394;82;20968;-73
2022/02/26 01:24:18;;;;;;;19.57;12.78;;;;;;;2.40;81.04;100957.82;1744856;82;20842;-72
2022/02/26 01:26:45;;;;;;;22.37;13.08;;;;;;;2.36;81.11;100958.34;1744451;82;20873;-72
2022/02/26 01:29:12;;;;;;;22.13;15.13;;;;;;;2.33;81.15;100949.33;1744801;82;21484;-72
2022/02/26 01:31:39;;;;;;;20.50;13.10;;;;;;;2.26;81.10;100947.77;1744847;82;21158;-72
2022/02/26 01:34:07;;;;;;;19.87;13.28;;;;;;;2.20;81.29;100941.41;1744387;82;21434;-71
2022/02/26 01:36:34;;;;;;;20.90;14.18;;;;;;;2.20;81.49;100951.76;1744805;82;21453;-72
2022/02/26 01:39:06;;;;;;;20.72;12.47;;;;;;;2.22;81.62;100946.11;1744352;82;20964;-71
2022/02/26 01:41:33;;;;;;;18.17;13.40;;;;;;;2.20;81.51;100959.52;1734581;82;20929;-72
2022/02/26 01:43:59;;;;;;;18.32;12.82;;;;;;;2.17;81.50;100953.97;1744584;82;21128;-72
2022/02/26 01:46:26;;;;;;;20.02;14.15;;;;;;;2.12;81.52;100950.63;1744693;82;21366;-72
2022/02/26 01:48:53;;;;;;;19.73;12.65;;;;;;;2.10;81.65;100954.98;1744626;81;20935;-72
2022/02/26 01:51:21;;;;;;;20.90;13.20;;;;;;;2.10;81.74;100951.55;1744509;80;20940;-72
2022/02/26 01:53:47;;;;;;;19.80;13.48;;;;;;;2.10;81.82;100953.69;1744508;82;21335;-72
2022/02/26 01:56:14;;;;;;;20.30;14.10;;;;;;;2.13;81.71;100951.48;1744783;82;20998;-72
2022/02/26 01:58:41;;;;;;;21.68;14.07;;;;;;;2.13;81.75;100953.61;1744490;81;20925;-72
2022/02/26 02:01:11;;;;;;;19.55;13.62;;;;;;;2.12;81.69;100954.52;1744527;82;21393;-72
2022/02/26 02:03:38;;;;;;;20.12;13.98;;;;;;;2.13;81.71;100961.38;1744420;82;20960;-72
2022/02/26 02:06:05;;;;;;;19.30;13.03;;;;;;;2.15;81.68;100960.06;1744755;82;20933;-72
2022/02/26 02:08:32;;;;;;;19.65;15.70;;;;;;;2.13;81.66;100961.38;1744350;82;21118;-72
2022/02/26 02:10:59;;;;;;;21.60;14.50;;;;;;;2.12;81.64;100962.27;1744485;82;20960;-72
2022/02/26 02:13:27;;;;;;;20.12;15.58;;;;;;;2.13;81.64;100965.70;1744437;82;21386;-72
2022/02/26 02:15:54;;;;;;;21.42;14.63;;;;;;;2.08;81.56;100967.94;1744366;81;20924;-72
2022/02/26 02:18:21;;;;;;;22.37;15.65;;;;;;;2.06;81.59;100961.09;1744534;81;20928;-72
2022/02/26 02:20:48;;;;;;;23.07;14.95;;;;;;;2.04;81.66;100966.28;1744407;80;21108;-71
2022/02/26 02:23:15;;;;;;;20.20;14.68;;;;;;;2.03;81.73;100964.59;1744342;82;20901;-72
2022/02/26 02:25:42;;;;;;;21.42;14.50;;;;;;;2.02;81.80;100973.25;1744440;81;20904;-71
2022/02/26 02:28:09;;;;;;;27.52;17.30;;;;;;;2.03;81.77;100971.06;1744734;82;20980;-72
2022/02/26 02:30:38;;;;;;;24.32;17.25;;;;;;;2.05;81.77;100972.34;1744514;82;20913;-72
2022/02/26 02:33:06;;;;;;;20.57;14.07;;;;;;;2.06;81.81;100977.45;1744884;80;21533;-72
2022/02/26 02:35:36;;;;;;;23.10;16.05;;;;;;;2.08;81.72;100982.16;1744396;82;20989;-73
2022/02/26 02:38:12;;;;;;;23.45;16.15;;;;;;;2.10;81.76;100990.35;1744376;80;20853;-73
2022/02/26 02:40:39;;;;;;;24.00;15.45;;;;;;;2.10;81.79;100983.44;1743568;81;21015;-72
2022/02/26 02:43:06;;;;;;;23.60;16.07;;;;;;;2.11;81.70;100984.28;1744506;82;21394;-73
2022/02/26 02:45:34;;;;;;;22.93;15.93;;;;;;;2.07;81.75;100988.23;1744490;81;21506;-73
2022/02/26 02:48:01;;;;;;;25.10;15.98;;;;;;;2.07;81.70;100983.51;1744705;82;20984;-71
2022/02/26 02:50:28;;;;;;;22.87;15.75;;;;;;;2.07;81.75;100983.06;1744419;80;21327;-71
2022/02/26 02:52:55;;;;;;;25.10;16.50;;;;;;;2.09;81.68;100981.75;1744758;82;20929;-72
2022/02/26 02:55:22;;;;;;;26.65;16.50;;;;;;;2.10;81.74;100982.14;1744607;80;20976;-73
2022/02/26 02:57:50;;;;;;;23.50;15.78;;;;;;;2.14;81.84;100981.66;1744804;82;21780;-71
2022/02/26 03:00:19;;;;;;;24.72;16.42;;;;;;;2.15;81.71;100976.88;1744620;81;21446;-71
2022/02/26 03:02:46;;;;;;;25.23;16.17;;;;;;;2.18;81.66;100979.39;1744849;82;21378;-72
2022/02/26 03:05:15;;;;;;;22.55;15.53;;;;;;;2.20;81.64;100982.39;1744512;82;20963;-72
2022/02/26 03:07:42;;;;;;;21.75;15.00;;;;;;;2.21;81.52;100991.84;1744604;81;21465;-73
2022/02/26 03:10:10;;;;;;;24.55;17.32;;;;;;;2.20;81.39;100986.69;1744539;82;21146;-72
2022/02/26 03:12:38;;;;;;;25.12;15.68;;;;;;;2.19;81.32;100991.47;1744569;81;20873;-72
2022/02/26 03:15:06;;;;;;;25.80;17.35;;;;;;;2.17;81.22;100990.19;1744639;82;21375;-72
2022/02/26 03:17:33;;;;;;;21.75;15.20;;;;;;;2.17;81.39;100995.37;1744616;82;20932;-73
2022/02/26 03:20:01;;;;;;;22.25;15.53;;;;;;;2.18;81.40;100997.09;1744708;82;21354;-73
2022/02/26 03:22:29;;;;;;;22.93;14.93;;;;;;;2.21;81.45;100999.60;1744699;82;21178;-73
2022/02/26 03:24:57;;;;;;;26.10;17.02;;;;;;;2.24;81.41;100991.77;1744621;81;20928;-72
2022/02/26 03:27:24;;;;;;;25.62;17.55;;;;;;;2.26;81.31;100998.22;1744808;81;20932;-73
2022/02/26 03:29:50;;;;;;;22.15;16.10;;;;;;;2.26;81.23;100991.75;1744885;82;20929;-72
2022/02/26 03:32:17;;;;;;;21.05;15.18;;;;;;;2.26;81.17;100998.22;1744583;81;20861;-72
2022/02/26 03:34:45;;;;;;;22.60;14.98;;;;;;;2.27;81.28;101001.23;1744900;82;21159;-72
2022/02/26 03:37:12;;;;;;;24.05;16.40;;;;;;;2.34;81.30;100998.93;1744592;82;20975;-73
2022/02/26 03:39:39;;;;;;;25.52;16.55;;;;;;;2.39;81.24;101001.42;1744895;82;20988;-72
2022/02/26 03:42:08;;;;;;;23.92;15.63;;;;;;;2.43;81.11;101008.25;1744997;81;20885;-73
2022/02/26 03:44:35;;;;;;;21.80;16.10;;;;;;;2.44;81.05;101012.53;1744549;82;20913;-73
2022/02/26 03:47:02;;;;;;;24.60;15.55;;;;;;;2.46;80.88;101012.91;1744864;82;21102;-72
2022/02/26 03:49:29;;;;;;;23.25;14.95;;;;;;;2.47;80.82;101009.45;1744458;80;21726;-71
2022/02/26 03:51:56;;;;;;;23.70;15.45;;;;;;;2.52;80.71;101010.64;1744551;82;20838;-73
2022/02/26 03:54:23;;;;;;;22.40;15.15;;;;;;;2.53;80.43;101023.14;1744795;82;20913;-72
2022/02/26 03:56:51;;;;;;;22.50;15.28;;;;;;;2.53;80.53;101024.44;1744903;82;21023;-73
2022/02/26 03:59:18;;;;;;;26.17;16.15;;;;;;;2.57;80.61;101020.91;1744525;80;21034;-72
2022/02/26 04:01:45;;;;;;;23.85;15.20;;;;;;;2.59;80.39;101017.84;1744710;82;21403;-73
2022/02/26 04:04:12;;;;;;;22.35;16.05;;;;;;;2.59;80.28;101025.61;1744679;82;20940;-72
2022/02/26 04:06:38;;;;;;;26.37;17.00;;;;;;;2.57;80.12;101028.67;1744836;81;21934;-73
2022/02/26 04:09:05;;;;;;;23.50;16.05;;;;;;;2.58;80.12;101032.53;1749789;80;20888;-72
2022/02/26 04:11:33;;;;;;;25.88;16.82;;;;;;;2.56;79.95;101031.71;1757973;81;21079;-73
2022/02/26 04:14:00;;;;;;;24.92;17.30;;;;;;;2.51;79.88;101038.69;1758106;81;20952;-73
2022/02/26 04:16:26;;;;;;;26.37;17.70;;;;;;;2.47;80.02;101044.39;1757915;81;20881;-72
2022/02/26 04:18:53;;;;;;;25.17;17.02;;;;;;;2.42;80.05;101053.11;1757810;80;21425;-73
2022/02/26 04:21:20;;;;;;;26.42;15.60;;;;;;;2.40;80.16;101056.17;1757857;81;20911;-73
2022/02/26 04:23:47;;;;;;;29.42;17.52;;;;;;;2.39;80.21;101058.36;1757992;81;21529;-72
2022/02/26 04:26:15;;;;;;;26.65;18.37;;;;;;;2.39;80.23;101064.39;1757905;80;20979;-71
2022/02/26 04:28:42;;;;;;;25.20;17.62;;;;;;;2.37;80.29;101064.85;1757860;81;20975;-72
2022/02/26 04:31:09;;;;;;;28.57;17.75;;;;;;;2.36;80.25;101068.78;1757997;81;20923;-72
2022/02/26 04:33:37;;;;;;;28.05;18.65;;;;;;;2.32;80.33;101078.33;1757809;80;20880;-73
2022/02/26 04:36:05;;;;;;;27.10;17.60;;;;;;;2.31;80.47;101071.88;1757860;81;21996;-73
2022/02/26 04:38:35;;;;;;;32.45;20.02;;;;;;;2.32;80.52;101074.45;1757771;81;20892;-74
2022/02/26 04:41:01;;;;;;;27.80;18.37;;;;;;;2.36;80.59;101068.34;1758153;81;20964;-72
2022/02/26 04:43:29;;;;;;;28.52;19.65;;;;;;;2.43;80.49;101075.09;1757786;81;20948;-73
2022/02/26 04:45:56;;;;;;;28.00;18.42;;;;;;;2.44;80.29;101076.78;1757872;81;20856;-72
2022/02/26 04:48:23;;;;;;;28.70;17.77;;;;;;;2.42;80.27;101083.76;1758010;81;21112;-72
2022/02/26 04:50:50;;;;;;;29.35;18.65;;;;;;;2.46;80.30;101091.00;1758173;80;20968;-72
2022/02/26 04:53:18;;;;;;;30.85;19.42;;;;;;;2.47;80.29;101089.69;1757850;81;20885;-72
2022/02/26 04:55:46;;;;;;;32.70;19.52;;;;;;;2.47;80.20;101097.91;1757853;81;20865;-73
2022/02/26 04:58:14;;;;;;;30.08;19.32;;;;;;;2.48;80.17;101103.03;1757851;81;20916;-73
2022/02/26 05:00:40;;;;;;;33.30;20.72;;;;;;;2.49;80.10;101099.58;1758080;81;21108;-72
2022/02/26 05:03:07;;;;;;;38.02;22.95;;;;;;;2.45;79.93;101105.69;1757845;81;20864;-73
2022/02/26 05:05:34;;;;;;;28.57;18.40;;;;;;;2.42;79.80;101114.81;1758129;81;21441;-74
2022/02/26 05:08:02;;;;;;;29.82;19.35;;;;;;;2.38;79.93;101101.93;1757762;81;21358;-72
2022/02/26 05:10:30;;;;;;;32.65;18.32;;;;;;;2.33;80.02;101120.13;1757724;81;20968;-73
2022/02/26 05:12:59;;;;;;;30.80;19.25;;;;;;;2.34;80.29;101117.98;1757931;81;20844;-73
2022/02/26 05:15:26;;;;;;;30.17;18.30;;;;;;;2.37;80.28;101120.50;1758052;81;20888;-72
2022/02/26 05:17:53;;;;;;;30.02;19.55;;;;;;;2.43;80.35;101123.42;1757773;81;20905;-73
2022/02/26 05:20:20;;;;;;;29.35;19.10;;;;;;;2.47;80.37;101123.34;1758133;80;21003;-72
2022/02/26 05:22:46;;;;;;;28.38;17.42;;;;;;;2.52;80.29;101119.38;1758094;81;20880;-73
2022/02/26 05:25:13;;;;;;;35.52;19.62;;;;;;;2.57;80.17;101123.16;1757797;81;21501;-72
2022/02/26 05:27:40;;;;;;;28.62;18.67;;;;;;;2.58;80.01;101117.09;1757833;81;21010;-73
2022/02/26 05:30:09;;;;;;;26.62;19.42;;;;;;;2.60;79.90;101116.62;1757890;81;20939;-73
2022/02/26 05:32:35;;;;;;;29.65;19.27;;;;;;;2.59;79.74;101118.81;1758042;81;20877;-74
2022/02/26 05:35:03;;;;;;;30.48;18.30;;;;;;;2.58;79.72;101117.09;1758017;81;21409;-73
2022/02/26 05:37:30;;;;;;;29.35;19.37;;;;;;;2.56;79.59;101121.02;1757774;81;21105;-73
2022/02/26 05:39:57;;;;;;;28.73;18.30;;;;;;;2.52;79.48;101120.66;1757824;80;20857;-73
2022/02/26 05:42:24;;;;;;;26.33;16.90;;;;;;;2.46;79.53;101122.91;1757867;80;20916;-73
2022/02/26 05:44:50;;;;;;;27.90;17.42;;;;;;;2.43;79.59;101128.16;1757784;80;20967;-72
2022/02/26 05:47:17;;;;;;;28.73;17.92;;;;;;;2.39;79.79;101132.97;1730397;81;21353;-74
2022/02/26 05:49:44;;;;;;;26.37;16.65;;;;;;;2.38;79.89;101138.16;1757956;81;21472;-73
2022/02/26 05:52:11;;;;;;;24.92;16.67;;;;;;;2.38;80.06;101135.58;1757630;81;21484;-73
2022/02/26 05:54:39;;;;;;;27.22;15.55;;;;;;;2.38;80.21;101145.52;1757883;80;20971;-75
2022/02/26 05:57:07;;;;;;;27.27;17.80;;;;;;;2.43;80.27;101149.31;1757854;81;20891;-74
2022/02/26 05:59:35;;;;;;;25.40;16.73;;;;;;;2.49;80.24;101157.82;1757834;81;20983;-73
2022/02/26 06:02:04;;;;;;;26.87;16.77;;;;;;;2.56;80.14;101155.13;1757882;81;22151;-73
2022/02/26 06:04:31;;;;;;;26.27;15.83;;;;;;;2.58;79.87;101159.81;1757706;80;20983;-74
2022/02/26 06:06:58;;;;;;;25.90;16.85;;;;;;;2.60;79.90;101162.81;1757952;81;21425;-74
2022/02/26 06:09:25;;;;;;;24.20;16.12;;;;;;;2.61;79.75;101164.50;1751943;81;20905;-74
2022/02/26 06:11:55;;;;;;;24.37;14.80;;;;;;;2.61;79.60;101172.72;1736030;81;21482;-74
2022/02/26 06:14:25;;;;;;;25.40;15.85;;;;;;;2.61;79.69;101175.31;1736132;82;21218;-75
2022/02/26 06:16:56;;;;;;;23.87;15.20;;;;;;;2.66;79.46;101182.54;1735995;82;20913;-74
2022/02/26 06:19:22;;;;;;;24.25;15.85;;;;;;;2.61;79.36;101177.90;1736357;82;21051;-74
2022/02/26 06:21:51;;;;;;;26.00;15.65;;;;;;;2.55;79.42;101185.32;1736084;82;21470;-74
2022/02/26 06:24:18;;;;;;;29.72;16.15;;;;;;;2.53;79.49;101188.81;1715639;82;20877;-74
2022/02/26 06:26:45;;;;;;;25.10;15.93;;;;;;;2.53;79.66;101185.78;1736056;82;21826;-74
2022/02/26 06:29:13;;;;;;;25.00;15.83;;;;;;;2.54;79.53;101193.98;1735993;82;20956;-75
2022/02/26 06:31:40;;;;;;;21.87;13.58;;;;;;;2.53;79.61;101194.00;1736492;82;20972;-74
2022/02/26 06:34:10;;;;;;;18.07;12.20;;;;;;;2.55;79.58;101194.83;1736125;82;20873;-74
2022/02/26 06:36:39;;;;;;;19.80;13.10;;;;;;;2.54;79.51;101195.72;1734916;82;20858;-74
2022/02/26 06:39:06;;;;;;;21.23;12.75;;;;;;;2.55;79.56;101195.67;1736304;82;21155;-74
2022/02/26 06:41:35;;;;;;;18.25;12.37;;;;;;;2.58;79.41;101199.94;1736106;82;20889;-74
2022/02/26 06:44:04;;;;;;;19.75;11.93;;;;;;;2.60;79.42;101195.17;1715125;82;20929;-74
2022/02/26 06:46:35;;;;;;;16.73;12.23;;;;;;;2.64;79.34;101198.09;1736186;82;20969;-74
2022/02/26 06:49:05;;;;;;;16.93;11.10;;;;;;;2.69;79.25;101203.19;1716089;82;20901;-73
2022/02/26 06:51:41;;;;;;;15.93;10.68;;;;;;;2.73;79.18;101210.48;1736428;82;21121;-73
2022/02/26 06:54:12;;;;;;;14.25;10.30;;;;;;;2.73;78.91;101210.02;1736202;82;20921;-74
2022/02/26 06:56:43;;;;;;;15.43;11.08;;;;;;;2.72;78.66;101208.33;1736492;81;21024;-75
2022/02/26 06:59:12;;;;;;;15.43;9.80;;;;;;;2.73;78.78;101208.73;1736249;82;20921;-75
2022/02/26 07:01:45;;;;;;;16.65;10.23;;;;;;;2.74;78.83;101213.05;1736757;81;21397;-74
2022/02/26 07:04:12;;;;;;;17.62;9.83;;;;;;;2.73;78.61;101208.73;1736099;82;21837;-72
2022/02/26 07:06:43;;;;;;;15.88;10.55;;;;;;;2.67;78.52;101218.78;1736469;82;20917;-73
2022/02/26 07:09:14;;;;;;;13.98;9.60;;;;;;;2.62;78.61;101205.48;1736613;81;21015;-76
2022/02/26 07:11:46;;;;;;;14.03;9.80;;;;;;;2.64;78.64;101220.55;1726092;81;20880;-75
2022/02/26 07:14:18;;;;;;;14.45;10.18;;;;;;;2.64;78.82;101219.25;1750407;82;21339;-74
2022/02/26 07:16:48;;;;;;;15.00;10.25;;;;;;;2.70;78.89;101225.62;1750256;80;21139;-75
2022/02/26 07:19:18;;;;;;;16.85;10.78;;;;;;;2.72;78.72;101230.80;1750273;82;20880;-76
2022/02/26 07:21:45;;;;;;;13.83;10.32;;;;;;;2.72;78.61;101231.64;1750041;82;20892;-74
2022/02/26 07:24:16;;;;;;;14.33;10.63;;;;;;;2.70;78.69;101234.69;1750167;82;20888;-74
2022/02/26 07:26:52;;;;;;;13.62;10.43;;;;;;;2.69;78.68;101233.84;1750470;82;20860;-75
2022/02/26 07:29:20;;;;;;;14.20;9.43;;;;;;;2.70;78.62;101242.46;1750675;82;21227;-73
2022/02/26 07:31:49;;;;;;;13.93;10.30;;;;;;;2.73;78.66;101236.38;1750232;82;21361;-74
2022/02/26 07:34:19;;;;;;;12.60;9.28;;;;;;;2.75;78.78;101240.64;1723189;82;21350;-75
2022/02/26 07:36:49;;;;;;;15.10;9.30;;;;;;;2.70;78.54;101246.34;1750555;80;21358;-75
2022/02/26 07:39:17;;;;;;;16.27;9.80;;;;;;;2.66;78.66;101243.39;1723403;82;20877;-73
2022/02/26 07:41:44;;;;;;;14.30;9.48;;;;;;;2.68;78.74;101246.81;1750143;82;21504;-74
2022/02/26 07:44:14;;;;;;;12.85;8.45;;;;;;;2.65;78.80;101253.35;1750360;82;20967;-76
2022/02/26 07:46:45;;;;;;;10.88;7.47;;;;;;;2.63;78.75;101244.30;1750420;82;20940;-75
2022/02/26 07:49:15;;;;;;;11.57;7.90;;;;;;;2.61;78.79;101242.17;1723760;82;20999;-74
2022/02/26 07:51:43;;;;;;;11.43;8.45;;;;;;;2.63;78.90;101250.77;1750511;81;20972;-76
2022/02/26 07:54:18;;;;;;;11.68;6.72;;;;;;;2.62;78.81;101242.61;1722979;82;20980;-76
2022/02/26 07:56:47;;;;;;;9.90;7.12;;;;;;;2.60;78.97;101251.25;1750153;81;20954;-77
2022/02/26 07:59:15;;;;;;;10.82;7.58;;;;;;;2.58;78.96;101248.72;1750411;82;20928;-75
2022/02/26 08:01:44;;;;;;;11.03;6.47;;;;;;;2.60;79.10;101249.96;1750318;80;21057;-75
2022/02/26 08:04:15;;;;;;;10.28;7.35;;;;;;;2.60;78.98;101256.02;1723076;82;20951;-75
2022/02/26 08:06:45;;;;;;;10.50;7.10;;;;;;;2.63;79.09;101250.77;1750499;82;21173;-74
2022/02/26 08:09:16;;;;;;;8.65;6.72;;;;;;;2.66;78.81;101261.52;1750368;82;20880;-74
2022/02/26 08:11:48;;;;;;;12.03;8.73;;;;;;;2.63;78.85;101256.41;1729690;81;20924;-74
2022/02/26 08:14:19;;;;;;;10.13;7.25;;;;;;;2.62;78.98;101255.55;1758119;81;21468;-76
2022/02/26 08:16:47;;;;;;;10.30;7.12;;;;;;;2.66;78.86;101257.19;1758088;81;20868;-75
2022/02/26 08:19:19;;;;;;;9.75;7.87;;;;;;;2.68;78.97;101261.05;1758274;81;21505;-76
2022/02/26 08:21:46;;;;;;;11.08;7.42;;;;;;;2.67;78.73;101264.54;1757828;81;20896;-74
2022/02/26 08:24:17;;;;;;;9.28;6.90;;;;;;;2.68;78.92;101261.05;1730340;81;20899;-76
2022/02/26 08:26:47;;;;;;;12.25;7.70;;;;;;;2.73;78.83;101260.97;1757886;80;20924;-75
2022/02/26 08:29:23;;;;;;;10.68;8.20;;;;;;;2.76;78.85;101260.48;1758091;80;20876;-75
2022/02/26 08:31:55;;;;;;;12.15;9.75;;;;;;;2.79;78.71;101260.42;1758119;81;21152;-73
2022/02/26 08:34:22;;;;;;;11.78;9.33;;;;;;;2.82;78.47;101263.40;1758171;81;20904;-74
2022/02/26 08:36:57;;;;;;;14.07;9.98;;;;;;;2.80;78.37;101267.75;1730126;81;20975;-75
2022/02/26 08:39:30;;;;;;;13.15;9.85;;;;;;;2.79;78.37;101263.02;1706301;81;20951;-74
2022/02/26 08:42:02;;;;;;;11.55;7.90;;;;;;;2.82;78.33;101272.47;1758224;81;20876;-75
2022/02/26 08:44:32;;;;;;;13.78;8.33;;;;;;;2.83;78.18;101271.15;1729885;81;21167;-75
2022/02/26 08:47:00;;;;;;;15.78;9.60;;;;;;;2.85;78.24;101272.43;1757880;81;21038;-75
2022/02/26 08:49:29;;;;;;;13.60;9.13;;;;;;;2.80;78.05;101267.33;1757804;81;20864;-75
2022/02/26 08:51:56;;;;;;;12.73;8.75;;;;;;;2.72;78.09;101270.94;1758258;81;20884;-74
2022/02/26 08:54:25;;;;;;;13.70;8.65;;;;;;;2.67;78.34;101270.56;1757855;81;20956;-76
2022/02/26 08:56:54;;;;;;;12.60;8.33;;;;;;;2.69;78.33;101279.58;1758068;80;21109;-75
2022/02/26 08:59:23;;;;;;;13.95;9.73;;;;;;;2.70;78.44;101278.72;1757747;81;20884;-74
2022/02/26 09:01:54;;;;;;;14.47;9.25;;;;;;;2.75;78.41;101276.89;1758203;81;20959;-75
2022/02/26 09:04:23;;;;;;;11.90;8.73;;;;;;;2.84;78.20;101282.36;1757904;80;20967;-75
2022/02/26 09:06:52;;;;;;;13.55;9.08;;;;;;;2.89;77.97;101276.65;1758217;80;20892;-76
2022/02/26 09:09:20;;;;;;;12.70;8.78;;;;;;;2.92;77.79;101277.91;1757759;81;21155;-75
2022/02/26 09:11:50;;;;;;;11.45;8.48;;;;;;;2.92;77.66;101268.00;1739271;81;20913;-76
2022/02/26 09:14:18;;;;;;;13.53;9.35;;;;;;;2.91;77.50;101268.41;1715192;82;21326;-75
2022/02/26 09:16:51;;;;;;;11.18;8.85;;;;;;;2.90;77.39;101266.72;1736055;82;21387;-77
2022/02/26 09:19:19;;;;;;;13.43;9.60;;;;;;;2.87;77.37;101270.67;1736199;82;20885;-75
2022/02/26 09:21:51;;;;;;;10.60;7.90;;;;;;;2.87;77.50;101271.97;1736233;82;21195;-75
2022/02/26 09:24:19;;;;;;;10.43;8.10;;;;;;;2.88;77.44;101258.96;1715619;82;21344;-75
2022/02/26 09:26:47;;;;;;;10.98;7.72;;;;;;;2.87;77.63;101262.45;1715186;82;20893;-75
2022/02/26 09:29:17;;;;;;;10.03;7.33;;;;;;;2.90;77.69;101263.68;1735963;82;20941;-75
2022/02/26 09:31:50;;;;;;;11.50;7.85;;;;;;;2.99;77.71;101264.41;1712003;82;21396;-74
2022/02/26 09:34:19;;;;;;;9.00;6.97;;;;;;;3.06;77.49;101268.59;1736137;81;21596;-74
2022/02/26 09:36:50;;;;;;;7.17;6.05;;;;;;;3.14;77.32;101265.87;1715417;82;20928;-75
2022/02/26 09:39:20;;;;;;;9.68;7.22;;;;;;;3.21;76.93;101270.89;1715726;82;20881;-75
2022/02/26 09:41:50;;;;;;;8.48;6.65;;;;;;;3.23;76.51;101268.28;1716323;82;20948;-75
2022/02/26 09:44:20;;;;;;;8.03;6.30;;;;;;;3.24;76.52;101268.23;1736410;82;21385;-75
2022/02/26 09:46:58;;;;;;;8.13;6.60;;;;;;;3.27;76.38;101266.89;1715623;82;21101;-74
2022/02/26 09:49:26;;;;;;;11.53;6.92;;;;;;;3.33;76.24;101272.38;1736048;82;20905;-75
2022/02/26 09:51:58;;;;;;;9.40;6.75;;;;;;;3.38;76.27;101265.81;1736164;82;20901;-75
2022/02/26 09:54:27;;;;;;;8.43;5.90;;;;;;;3.43;76.26;101261.41;1716178;82;20944;-75
2022/02/26 09:56:54;;;;;;;7.65;6.58;;;;;;;3.47;76.08;101270.84;1715862;82;20988;-74
2022/02/26 09:59:21;;;;;;;8.18;6.97;;;;;;;3.45;76.11;101272.16;1736342;82;22140;-74
2022/02/26 10:02:01;;;;;;;7.58;6.17;;;;;;;3.51;76.29;101273.75;1736067;81;21510;-74
2022/02/26 10:04:32;;;;;;;7.60;6.45;;;;;;;3.58;76.24;101279.25;1735862;82;21015;-74
2022/02/26 10:07:22;;;;;;;7.10;6.03;;;;;;;3.69;76.25;101273.81;1736172;82;21063;-74
2022/02/26 10:09:49;;;;;;;8.60;6.87;;;;;;;3.73;75.67;101274.17;1715695;82;20944;-75
2022/02/26 10:12:30;;;;;;;6.83;5.87;;;;;;;3.72;75.44;101270.73;1728960;81;21224;-74
2022/02/26 10:15:00;;;;;;;7.45;5.58;;;;;;;3.69;75.21;101276.41;1732851;81;20924;-74
2022/02/26 10:17:40;;;;;;;9.48;6.70;;;;;;;3.65;75.15;101282.58;1757915;81;28280;-74
2022/02/26 10:20:16;;;;;;;8.38;6.65;;;;;;;3.63;75.31;101285.64;1757711;80;21503;-74
2022/02/26 10:25:14;;;;;;;6.42;5.40;;;;;;;3.66;75.58;101278.63;1797844;79;22639;-74
2022/02/26 10:27:48;;;;;;;8.10;5.87;;;;;;;3.63;75.63;101291.67;1758496;80;20967;-75
2022/02/26 10:30:31;;;;;;;6.30;5.05;;;;;;;3.66;75.45;101292.89;1758297;81;21544;-75
2022/02/26 10:33:21;;;;;;;6.78;5.40;;;;;;;3.72;75.49;101286.74;1758258;80;20900;-75
2022/02/26 10:35:59;;;;;;;6.22;4.87;;;;;;;3.78;75.48;101295.70;1741691;81;20986;-74
2022/02/26 10:38:35;;;;;;;7.05;5.58;;;;;;;3.85;75.41;101294.67;1739290;81;20984;-74
2022/02/26 10:41:11;;;;;;;6.70;5.97;;;;;;;3.91;75.18;101302.34;1758450;80;20920;-74
2022/02/26 10:43:55;;;;;;;;;;;;;;;3.96;74.91;101294.45;1760830;80;21132;-74
2022/02/26 10:46:28;;;;;;;5.67;5.05;;;;;;;3.95;74.55;101297.47;1740271;81;20092;-75
2022/02/26 10:49:04;;;;;;;6.10;5.50;;;;;;;3.96;74.52;101306.13;1758340;81;21338;-75
2022/02/26 10:51:37;;;;;;;7.75;5.33;;;;;;;3.95;74.51;101306.55;1758371;81;20975;-75
2022/02/26 10:54:11;;;;;;;7.95;5.30;;;;;;;3.94;74.72;101309.20;1758108;81;21027;-73
2022/02/26 10:56:48;;;;;;;7.50;6.17;;;;;;;3.97;74.80;101309.13;1726194;81;22013;-75
2022/02/26 10:59:17;;;;;;;6.03;5.42;;;;;;;4.00;74.67;101313.39;1757468;81;21015;-75
2022/02/26 11:01:54;;;;;;;6.78;5.83;;;;;;;4.04;74.83;101309.84;1756824;80;20983;-76
2022/02/26 11:04:25;;;;;;;7.10;6.35;;;;;;;4.10;75.02;101313.16;1744022;81;21125;-76
2022/02/26 11:06:57;;;;;;;6.80;5.53;;;;;;;4.17;74.49;101319.06;1758398;80;20865;-75
2022/02/26 11:09:25;;;;;;;8.75;5.78;;;;;;;4.20;74.36;101325.48;1714920;80;21203;-74
2022/02/26 11:11:59;;;;;;;6.83;5.87;;;;;;;4.25;74.29;101319.77;1758429;80;20952;-73
2022/02/26 11:14:34;;;;;;;7.45;6.10;;;;;;;4.28;74.01;101318.84;1714673;81;21001;-75
2022/02/26 11:17:07;;;;;;;8.45;6.35;;;;;;;4.30;73.92;101320.50;1758453;80;20896;-75
2022/02/26 11:19:38;;;;;;;6.30;5.70;;;;;;;4.30;73.93;101315.77;1740596;81;21386;-75
2022/02/26 11:22:06;;;;;;;8.63;6.65;;;;;;;4.28;73.79;101316.23;1739247;80;21141;-74
2022/02/26 11:24:36;;;;;;;6.62;5.78;;;;;;;4.28;73.90;101320.98;1758262;81;20900;-74
2022/02/26 11:27:06;;;;;;;7.12;5.85;;;;;;;4.28;73.73;101320.98;1742017;81;20881;-75
2022/02/26 11:29:41;;;;;;;8.40;5.62;;;;;;;4.24;73.66;101324.98;1741480;81;20865;-75
2022/02/26 11:32:13;;;;;;;7.70;5.87;;;;;;;4.24;73.73;101324.98;1757570;80;20999;-75